createdAt,value
2022-09-12T00:47:47.393Z,11.40
2022-09-12T00:50:16.126Z,12.15
2022-09-12T00:52:45.907Z,13.43
2022-09-12T00:55:19.756Z,12.00
2022-09-12T00:57:57.712Z,13.95
2022-09-12T01:00:27.017Z,13.68
2022-09-12T01:03:01.041Z,13.02
2022-09-12T01:05:29.701Z,14.85
2022-09-12T01:07:57.690Z,14.23
2022-09-12T01:10:25.175Z,14.48
2022-09-12T01:12:52.045Z,14.82
2022-09-12T01:15:18.920Z,13.45
2022-09-12T01:18:10.767Z,14.25
2022-09-12T01:20:47.256Z,14.98
2022-09-12T01:23:26.353Z,14.27
2022-09-12T01:26:04.040Z,14.15
2022-09-12T01:28:37.053Z,14.77
2022-09-12T01:31:39.233Z,14.38
2022-09-12T01:34:28.125Z,14.60
2022-09-12T01:37:15.118Z,15.93
2022-09-12T01:39:56.424Z,14.82
2022-09-12T01:42:49.854Z,14.80
2022-09-12T01:45:32.441Z,15.82
2022-09-12T01:48:22.568Z,16.45
2022-09-12T01:51:11.182Z,15.95
2022-09-12T01:53:42.612Z,17.08
2022-09-12T01:56:26.484Z,17.40
2022-09-12T01:59:03.910Z,17.70
2022-09-12T02:01:39.658Z,15.73
2022-09-12T02:04:12.855Z,14.95
2022-09-12T02:07:01.700Z,18.23
2022-09-12T02:09:38.051Z,17.40
2022-09-12T02:12:08.758Z,18.95
2022-09-12T02:14:40.816Z,18.73
2022-09-12T02:17:21.051Z,19.38
2022-09-12T02:19:54.336Z,18.05
2022-09-12T02:22:25.152Z,18.23
2022-09-12T02:24:57.494Z,18.45
2022-09-12T02:27:26.723Z,17.10
2022-09-12T02:29:54.059Z,18.70
2022-09-12T02:32:38.224Z,17.20
2022-09-12T02:35:18.898Z,19.02
2022-09-12T02:37:59.752Z,18.83
2022-09-12T02:40:26.809Z,17.58
2022-09-12T02:42:53.711Z,19.48
2022-09-12T02:45:22.816Z,20.58
2022-09-12T02:47:57.530Z,19.38
2022-09-12T02:50:24.566Z,19.00
2022-09-12T02:52:54.712Z,20.13
2022-09-12T02:55:24.684Z,22.00
2022-09-12T02:57:51.519Z,20.75
2022-09-12T03:00:18.473Z,19.75
2022-09-12T03:03:06.902Z,20.05
2022-09-12T03:05:59.450Z,18.05
2022-09-12T03:08:45.313Z,21.85
2022-09-12T03:11:26.635Z,20.55
2022-09-12T03:14:22.662Z,21.02
2022-09-12T03:17:12.235Z,21.20
2022-09-12T03:20:09.574Z,20.00
2022-09-12T03:22:56.585Z,20.70
2022-09-12T03:25:36.550Z,20.20
2022-09-12T03:28:13.169Z,20.33
2022-09-12T03:30:45.867Z,21.67
2022-09-12T03:33:15.329Z,19.80
2022-09-12T03:35:42.454Z,22.92
2022-09-12T03:38:10.116Z,24.13
2022-09-12T03:40:38.411Z,24.05
2022-09-12T03:43:06.914Z,23.20
2022-09-12T03:45:34.725Z,22.75
2022-09-12T03:48:02.038Z,22.45
2022-09-12T03:50:29.062Z,22.33
2022-09-12T03:52:56.287Z,23.30
2022-09-12T03:55:23.338Z,23.58
2022-09-12T03:57:54.015Z,23.98
2022-09-12T04:00:21.219Z,22.80
2022-09-12T04:02:48.271Z,24.23
2022-09-12T04:05:15.418Z,23.60
2022-09-12T04:07:42.281Z,22.17
2022-09-12T04:10:09.824Z,24.42
2022-09-12T04:12:36.893Z,24.30
2022-09-12T04:15:03.940Z,24.05
2022-09-12T04:17:30.917Z,23.40
2022-09-12T04:19:57.830Z,23.63
2022-09-12T04:22:24.782Z,24.85
2022-09-12T04:24:51.821Z,23.33
2022-09-12T04:27:18.767Z,24.95
2022-09-12T04:29:45.611Z,24.85
2022-09-12T04:32:12.958Z,26.52
2022-09-12T04:34:39.808Z,26.20
2022-09-12T04:37:06.685Z,24.85
2022-09-12T04:39:33.509Z,26.50
2022-09-12T04:42:00.364Z,27.52
2022-09-12T04:44:27.272Z,24.60
2022-09-12T04:46:54.293Z,25.85
2022-09-12T04:49:21.148Z,25.35
2022-09-12T04:51:48.116Z,24.05
2022-09-12T04:54:18.544Z,24.77
2022-09-12T04:56:48.821Z,23.25
2022-09-12T04:59:17.351Z,24.63
2022-09-12T05:01:44.610Z,24.17
2022-09-12T05:04:15.234Z,24.25
2022-09-12T05:06:42.919Z,24.98
2022-09-12T05:09:12.718Z,23.13
2022-09-12T05:12:03.349Z,24.13
2022-09-12T05:14:28.644Z,24.90
2022-09-12T05:16:59.787Z,25.42
2022-09-12T05:19:27.441Z,25.95
2022-09-12T05:21:54.392Z,23.85
2022-09-12T05:24:21.253Z,25.40
2022-09-12T05:26:48.424Z,23.90
2022-09-12T05:29:15.520Z,22.63
2022-09-12T05:35:41.162Z,26.40
2022-09-12T05:38:08.519Z,23.55
2022-09-12T05:40:35.803Z,24.17
2022-09-12T05:43:02.720Z,22.98
2022-09-12T05:45:30.159Z,24.00
2022-09-12T05:47:57.044Z,24.25
2022-09-12T05:50:23.972Z,25.30
2022-09-12T05:52:50.920Z,25.10
2022-09-12T05:55:17.875Z,23.38
2022-09-12T05:57:46.256Z,23.17
2022-09-12T06:00:15.125Z,24.50
2022-09-12T06:02:42.153Z,23.13
2022-09-12T06:05:09.339Z,23.60
2022-09-12T06:07:36.316Z,25.17
2022-09-12T06:10:05.379Z,22.10
2022-09-12T06:12:33.048Z,23.25
2022-09-12T06:15:00.121Z,24.58
2022-09-12T06:17:27.450Z,25.33
2022-09-12T06:19:55.828Z,24.60
2022-09-12T06:22:22.877Z,24.65
2022-09-12T06:24:51.338Z,25.10
2022-09-12T06:27:19.756Z,26.25
2022-09-12T06:29:46.670Z,24.30
2022-09-12T06:32:14.122Z,26.60
2022-09-12T06:34:41.087Z,25.67
2022-09-12T06:37:08.013Z,26.30
2022-09-12T06:39:36.603Z,26.30
2022-09-12T06:42:04.219Z,28.52
2022-09-12T06:44:31.841Z,27.67
2022-09-12T06:46:59.403Z,28.92
2022-09-12T06:49:26.434Z,30.15
2022-09-12T06:51:56.237Z,27.60
2022-09-12T06:54:23.627Z,30.05
2022-09-12T06:56:50.693Z,31.77
2022-09-12T06:59:17.733Z,29.23
2022-09-12T07:01:44.754Z,29.52
2022-09-12T07:04:11.793Z,29.15
2022-09-12T07:06:41.498Z,32.55
2022-09-12T07:09:13.057Z,30.13
2022-09-12T07:11:41.606Z,29.63
2022-09-12T07:14:11.274Z,31.42
2022-09-12T07:16:38.679Z,30.73
2022-09-12T07:19:08.138Z,33.92
2022-09-12T07:21:42.179Z,32.85
2022-09-12T07:24:10.450Z,33.35
2022-09-12T07:26:39.662Z,31.65
2022-09-12T07:29:35.255Z,32.17
2022-09-12T07:31:54.134Z,32.60
2022-09-12T07:34:21.309Z,33.08
2022-09-12T07:36:48.198Z,34.55
2022-09-12T07:39:15.168Z,33.25
2022-09-12T07:41:42.064Z,35.50
2022-09-12T07:44:09.096Z,34.72
2022-09-12T07:46:36.036Z,35.78
2022-09-12T07:49:03.476Z,35.78
2022-09-12T07:51:31.816Z,32.53
2022-09-12T07:53:58.822Z,33.00
2022-09-12T07:56:30.224Z,35.25
2022-09-12T07:58:59.123Z,35.63
2022-09-12T08:01:26.539Z,35.08
2022-09-12T08:03:56.253Z,32.30
2022-09-12T08:06:26.980Z,35.38
2022-09-12T08:08:57.330Z,33.65
2022-09-12T08:11:25.357Z,32.88
2022-09-12T08:13:55.648Z,34.35
2022-09-12T08:16:25.677Z,31.35
2022-09-12T08:18:52.699Z,32.83
2022-09-12T08:21:21.035Z,31.65
2022-09-12T08:23:52.682Z,34.65
2022-09-12T08:26:19.927Z,32.05
2022-09-12T08:28:46.890Z,31.35
2022-09-12T08:31:16.884Z,31.55
2022-09-12T08:33:44.399Z,30.83
2022-09-12T08:36:13.100Z,31.02
2022-09-12T08:38:43.615Z,29.25
2022-09-12T08:41:30.526Z,27.83
2022-09-12T08:44:15.608Z,28.65
2022-09-12T08:47:03.167Z,27.55
2022-09-12T08:49:33.962Z,26.25
2022-09-12T08:52:07.839Z,28.02
2022-09-12T08:54:35.133Z,26.70
2022-09-12T08:57:04.729Z,25.25
2022-09-12T08:59:46.733Z,27.10
2022-09-12T09:02:28.832Z,26.85
2022-09-12T09:05:04.883Z,28.20
2022-09-12T09:07:54.326Z,26.70
2022-09-12T09:10:40.230Z,27.73
2022-09-12T09:13:46.984Z,24.67
2022-09-12T09:16:22.947Z,30.10
2022-09-12T09:18:52.081Z,25.92
2022-09-12T09:21:39.917Z,24.63
2022-09-12T09:24:12.435Z,27.45
2022-09-12T09:26:56.078Z,25.77
2022-09-12T09:29:42.091Z,24.30
2022-09-12T09:32:19.583Z,23.75
2022-09-12T09:34:46.496Z,25.98
2022-09-12T09:37:19.103Z,24.23
2022-09-12T09:40:19.524Z,24.73
2022-09-12T09:43:04.957Z,23.75
2022-09-12T09:45:32.172Z,24.98
2022-09-12T09:48:27.690Z,22.20
2022-09-12T09:50:54.733Z,23.60
2022-09-12T09:53:37.581Z,23.50
2022-09-12T09:56:24.704Z,22.75
2022-09-12T09:58:54.872Z,21.65
2022-09-12T10:01:22.444Z,21.85
2022-09-12T10:03:55.116Z,22.67
2022-09-12T10:06:22.330Z,22.45
2022-09-12T10:08:50.695Z,22.60
2022-09-12T10:11:28.111Z,24.55
2022-09-12T10:13:57.619Z,23.60
2022-09-12T10:16:48.794Z,23.60
2022-09-12T10:19:49.853Z,22.10
2022-09-12T10:22:29.312Z,23.30
2022-09-12T10:25:01.777Z,22.40
2022-09-12T10:27:32.105Z,22.08
2022-09-12T10:30:06.948Z,19.98
2022-09-12T10:32:39.431Z,18.92
2022-09-12T10:35:20.101Z,18.83
2022-09-12T10:38:06.166Z,19.73
2022-09-12T10:40:40.403Z,18.38
2022-09-12T10:43:38.436Z,19.70
2022-09-12T10:46:17.329Z,18.75
2022-09-12T10:48:47.259Z,17.48
2022-09-12T10:51:29.930Z,15.30
2022-09-12T10:54:03.696Z,17.30
2022-09-12T10:56:32.994Z,13.35
2022-09-12T10:59:21.174Z,15.27
2022-09-12T11:02:05.091Z,13.63
2022-09-12T11:04:38.868Z,14.95
2022-09-12T11:07:24.702Z,15.48
2022-09-12T11:10:13.572Z,19.10
2022-09-12T11:12:58.318Z,17.50
2022-09-12T11:15:43.137Z,17.33
2022-09-12T11:18:37.741Z,18.15
2022-09-12T11:21:13.478Z,15.38
2022-09-12T11:23:40.635Z,15.50
2022-09-12T11:26:16.487Z,15.60
2022-09-12T11:29:04.398Z,14.40
2022-09-12T11:31:46.587Z,14.73
2022-09-12T11:34:19.830Z,16.23
2022-09-12T11:37:10.457Z,13.68
2022-09-12T11:39:43.191Z,13.88
2022-09-12T11:42:18.026Z,11.98
2022-09-12T11:44:56.278Z,10.32
2022-09-12T11:47:25.343Z,10.23
2022-09-12T11:49:54.886Z,10.55
2022-09-12T11:52:26.070Z,9.20
2022-09-12T11:55:17.277Z,7.22
2022-09-12T11:58:02.758Z,8.05
2022-09-12T12:00:38.035Z,6.10
2022-09-12T12:03:10.689Z,5.97
2022-09-12T12:08:11.071Z,7.20
2022-09-12T12:10:42.334Z,7.85
2022-09-12T12:13:26.850Z,7.03
2022-09-12T12:15:57.805Z,8.30
2022-09-12T12:18:26.925Z,6.53
2022-09-12T12:20:55.913Z,6.43
2022-09-12T12:23:29.900Z,6.47
2022-09-12T12:26:00.050Z,7.32
2022-09-12T12:28:53.877Z,6.72
2022-09-12T12:31:21.119Z,8.77
2022-09-12T12:33:48.273Z,5.75
2022-09-12T12:36:44.829Z,4.85
2022-09-12T12:39:33.493Z,4.20
2022-09-12T12:42:03.200Z,5.53
2022-09-12T12:44:45.126Z,5.75
2022-09-12T12:47:22.131Z,5.55
2022-09-12T12:50:23.946Z,6.65
2022-09-12T12:52:55.617Z,5.47
2022-09-12T12:55:39.103Z,5.10
2022-09-12T12:58:18.449Z,3.53
2022-09-12T13:00:47.070Z,3.90
2022-09-12T13:03:41.925Z,3.10
2022-09-12T13:06:35.302Z,4.25
2022-09-12T13:09:06.661Z,4.25
2022-09-12T13:11:35.232Z,4.68
2022-09-12T13:14:07.047Z,5.07
2022-09-12T13:16:39.378Z,4.00
2022-09-12T13:19:21.992Z,4.90
2022-09-12T13:22:21.817Z,4.80
2022-09-12T13:24:52.276Z,5.18
2022-09-12T13:27:20.205Z,5.30
2022-09-12T13:29:47.414Z,5.10
2022-09-12T13:32:15.505Z,4.95
2022-09-12T13:35:14.063Z,4.47
2022-09-12T13:37:51.597Z,5.20
2022-09-12T13:40:39.420Z,4.93
2022-09-12T13:43:17.386Z,4.70
2022-09-12T13:45:47.050Z,4.43
2022-09-12T13:48:20.048Z,4.97
2022-09-12T13:51:00.674Z,5.03
2022-09-12T13:53:42.608Z,3.67
2022-09-12T13:56:17.433Z,3.45
2022-09-12T13:58:57.266Z,4.18
2022-09-12T14:01:36.865Z,4.20
2022-09-12T14:04:35.822Z,4.22
2022-09-12T14:07:13.997Z,5.13
2022-09-12T14:09:47.137Z,5.53
2022-09-12T14:14:56.273Z,4.30
2022-09-12T14:17:51.767Z,4.43
2022-09-12T14:20:20.784Z,5.05
2022-09-12T14:22:51.414Z,4.60
2022-09-12T14:25:21.557Z,3.78
2022-09-12T14:27:59.769Z,4.60
2022-09-12T14:30:32.570Z,4.78
2022-09-12T14:33:13.535Z,3.23
2022-09-12T14:35:52.231Z,3.80
2022-09-12T14:38:34.161Z,3.92
2022-09-12T14:41:06.070Z,4.18
2022-09-12T14:43:44.215Z,5.43
2022-09-12T14:46:34.131Z,4.93
2022-09-12T14:49:18.347Z,4.40
2022-09-12T14:51:51.510Z,4.07
2022-09-12T14:54:27.772Z,4.07
2022-09-12T14:56:57.340Z,4.60
2022-09-12T14:59:34.675Z,4.55
2022-09-12T15:02:20.175Z,5.88
2022-09-12T15:04:53.560Z,5.38
2022-09-12T15:07:41.196Z,5.95
2022-09-12T15:10:22.994Z,6.57
2022-09-12T15:12:49.978Z,7.47
2022-09-12T15:15:19.766Z,7.80
2022-09-12T15:17:46.960Z,8.30
2022-09-12T15:20:14.344Z,6.93
2022-09-12T15:22:42.477Z,7.35
2022-09-12T15:25:12.487Z,7.05
2022-09-12T15:27:41.054Z,8.68
2022-09-12T15:30:12.797Z,7.07
2022-09-12T15:32:41.045Z,6.97
2022-09-12T15:35:23.409Z,7.53
2022-09-12T15:37:54.203Z,7.22
2022-09-12T15:40:21.336Z,7.95
2022-09-12T15:42:59.272Z,6.15
2022-09-12T15:45:28.569Z,8.30
2022-09-12T15:47:56.348Z,7.95
2022-09-12T15:50:26.629Z,7.40
2022-09-12T15:52:53.942Z,7.72
2022-09-12T15:55:28.049Z,6.47
2022-09-12T15:57:55.705Z,7.32
2022-09-12T16:00:22.748Z,6.30
2022-09-12T16:02:51.848Z,7.25
2022-09-12T16:05:25.243Z,6.75
2022-09-12T16:07:55.888Z,5.78
2022-09-12T16:10:27.522Z,5.60
2022-09-12T16:12:55.483Z,6.65
2022-09-12T16:15:24.688Z,5.07
2022-09-12T16:17:52.573Z,5.93
2022-09-12T16:20:20.134Z,4.72
2022-09-12T16:22:47.215Z,4.20
2022-09-12T16:25:14.226Z,4.10
2022-09-12T16:27:41.361Z,3.88
2022-09-12T16:30:09.288Z,5.15
2022-09-12T16:32:36.458Z,3.63
2022-09-12T16:35:04.201Z,3.67
2022-09-12T16:37:32.420Z,3.83
2022-09-12T16:39:59.498Z,3.28
2022-09-12T16:42:26.596Z,3.88
2022-09-12T16:44:53.490Z,3.55
2022-09-12T16:47:20.398Z,5.28
2022-09-12T16:49:47.376Z,3.70
2022-09-12T16:52:16.694Z,3.97
2022-09-12T16:54:47.142Z,3.30
2022-09-12T16:57:14.128Z,3.47
2022-09-12T16:59:41.070Z,3.75
2022-09-12T17:02:12.281Z,3.35
2022-09-12T17:04:39.651Z,3.38
2022-09-12T17:07:06.640Z,3.08
2022-09-12T17:09:33.611Z,2.75
2022-09-12T17:12:00.864Z,3.17
2022-09-12T17:14:27.776Z,3.63
2022-09-12T17:16:54.723Z,3.20
2022-09-12T17:19:28.055Z,2.78
2022-09-12T17:21:55.900Z,3.20
2022-09-12T17:24:23.400Z,3.38
2022-09-12T17:26:54.337Z,4.15
2022-09-12T17:29:21.391Z,3.30
2022-09-12T17:31:48.856Z,3.38
2022-09-12T17:34:16.459Z,3.15
2022-09-12T17:36:44.988Z,3.08
2022-09-12T17:39:13.702Z,3.60
2022-09-12T17:41:42.733Z,3.97
2022-09-12T17:44:12.551Z,3.88
2022-09-12T17:46:39.999Z,3.38
2022-09-12T17:49:11.503Z,3.55
2022-09-12T17:51:39.590Z,3.47
2022-09-12T17:54:16.107Z,3.13
2022-09-12T17:56:45.527Z,3.30
2022-09-12T17:59:22.989Z,3.10
2022-09-12T18:02:08.639Z,3.70
2022-09-12T18:04:35.795Z,4.30
2022-09-12T18:07:02.742Z,2.92
2022-09-12T18:09:30.840Z,3.55
2022-09-12T18:11:57.839Z,4.22
2022-09-12T18:14:27.716Z,3.60
2022-09-12T18:16:57.246Z,3.15
2022-09-12T18:19:24.786Z,2.85
2022-09-12T18:21:51.708Z,3.60
2022-09-12T18:24:18.704Z,2.97
2022-09-12T18:26:46.188Z,3.78
2022-09-12T18:29:17.216Z,3.55
2022-09-12T18:31:46.094Z,3.78
2022-09-12T18:34:13.818Z,3.97
2022-09-12T18:36:42.666Z,4.32
2022-09-12T18:39:10.361Z,5.65
2022-09-12T18:41:38.229Z,3.47
2022-09-12T18:44:06.138Z,3.30
2022-09-12T18:46:35.170Z,4.75
2022-09-12T18:49:02.414Z,4.60
2022-09-12T18:51:33.018Z,3.65
2022-09-12T18:54:06.371Z,4.13
2022-09-12T18:56:35.962Z,6.85
2022-09-12T18:59:05.132Z,4.25
2022-09-12T19:01:37.753Z,3.90
2022-09-12T19:04:06.644Z,4.85
2022-09-12T19:06:36.437Z,3.38
2022-09-12T19:09:08.016Z,3.20
2022-09-12T19:11:37.499Z,3.17
2022-09-12T19:14:05.659Z,4.03
2022-09-12T19:16:32.947Z,5.28
2022-09-12T19:19:01.162Z,4.22
2022-09-12T19:21:30.369Z,3.75
2022-09-12T19:24:00.279Z,4.38
2022-09-12T19:26:27.946Z,4.35
2022-09-12T19:28:57.255Z,3.92
2022-09-12T19:31:25.932Z,4.30
2022-09-12T19:33:53.973Z,3.88
2022-09-12T19:36:44.495Z,3.30
2022-09-12T19:39:12.979Z,4.60
2022-09-12T19:41:39.958Z,4.70
2022-09-12T19:44:07.065Z,4.20
2022-09-12T19:46:34.123Z,4.03
2022-09-12T19:49:01.629Z,4.65
2022-09-12T19:51:29.095Z,5.07
2022-09-12T19:53:56.282Z,5.63
2022-09-12T19:56:23.588Z,5.90
2022-09-12T19:58:55.323Z,6.63
2022-09-12T20:01:28.071Z,18.27
2022-09-12T20:03:56.445Z,6.13
2022-09-12T20:06:23.430Z,4.60
2022-09-12T20:08:50.716Z,4.82
2022-09-12T20:11:20.061Z,5.75
2022-09-12T20:13:47.492Z,5.07
2022-09-12T20:16:20.586Z,5.97
2022-09-12T20:18:49.571Z,5.88
2022-09-12T20:21:19.420Z,5.47
2022-09-12T20:23:47.549Z,4.95
2022-09-12T20:26:15.115Z,7.20
2022-09-12T20:28:42.622Z,4.82
2022-09-12T20:31:15.312Z,5.70
2022-09-12T20:33:42.620Z,5.47
2022-09-12T20:36:15.994Z,5.07
2022-09-12T20:38:57.840Z,5.20
2022-09-12T20:41:26.634Z,7.18
2022-09-12T20:43:55.525Z,5.53
2022-09-12T20:46:27.424Z,6.50
2022-09-12T20:48:54.621Z,6.15
2022-09-12T20:51:22.452Z,6.80
2022-09-12T20:53:54.428Z,6.40
2022-09-12T20:56:22.523Z,7.22
2022-09-12T20:58:49.707Z,6.93
2022-09-12T21:01:17.428Z,7.00
2022-09-12T21:03:45.530Z,7.97
2022-09-12T21:06:14.470Z,7.65
2022-09-12T21:08:41.414Z,7.22
2022-09-12T21:11:11.813Z,8.57
2022-09-12T21:13:39.215Z,9.02
2022-09-12T21:16:09.943Z,9.70
2022-09-12T21:18:38.159Z,10.07
2022-09-12T21:21:06.128Z,8.98
2022-09-12T21:23:33.859Z,8.55
2022-09-12T21:26:01.682Z,9.40
2022-09-12T21:28:28.706Z,9.23
2022-09-12T21:30:56.509Z,10.25
2022-09-12T21:33:23.955Z,10.88
2022-09-12T21:35:51.705Z,11.32
2022-09-12T21:38:19.905Z,10.57
2022-09-12T21:40:47.824Z,10.10
2022-09-12T21:43:15.461Z,12.07
2022-09-12T21:45:45.394Z,12.52
2022-09-12T21:48:12.892Z,12.73
2022-09-12T21:50:39.752Z,12.48
2022-09-12T21:53:09.737Z,11.75
2022-09-12T21:55:36.700Z,10.95
2022-09-12T21:58:03.829Z,11.10
